Terminal Aerodrome Forecast
Issued by NWS Louisville, KY

Home | Current Version | Previous Version | Text Only | Print | Product List | Glossary On
Versions: 1 2 3 4 5 6 7 8 9 10 11 12 13 14 15 16 17
000
FTUS43 KLMK 291734
TAFBWG
TAF
KBWG 291734Z 2918/3018 VRB04KT P6SM BKN250
     FM292300 05006KT P6SM VCSH BKN080
     FM300700 09007KT P6SM -SHRA BKN040
     FM301300 11010KT 5SM -SHRA VCTS BKN025CB
     FM301700 17010KT P6SM VCSH BKN025=

USA.gov is the U.S. government's official web portal to all federal, state and local government web resources and services.